Time;durP1;ratioP1;P1;durP2;ratioP2;P2;SDS_P1;SDS_P2;PMS_P1;PMS_P2;Temp;Humidity;BMP_temperature;BMP_pressure;BME280_temperature;BME280_humidity;BME280_pressure;Samples;Min_cycle;Max_cycle;Signal;HPM_P1;HPM_P2
2021/06/01 00:01:24;;;;;;;;;;;27.30;94.60;;;;;;5107269;28;19918;-49
2021/06/01 00:03:50;;;;;;;;;;;27.30;94.50;;;;;;5106705;28;19916;-43
2021/06/01 00:06:17;;;;;;;;;;;27.30;94.60;;;;;;5107392;28;19912;-45
2021/06/01 00:08:43;;;;;;;;;;;27.30;94.70;;;;;;5103168;28;20109;-52
2021/06/01 00:11:10;;;;;;;;;;;27.30;94.70;;;;;;5086874;28;19912;-47
2021/06/01 00:13:36;;;;;;;;;;;27.30;94.70;;;;;;5098511;28;19904;-54
2021/06/01 00:16:03;;;;;;;;;;;27.30;94.80;;;;;;5107079;28;19919;-44
2021/06/01 00:18:29;;;;;;;;;;;27.30;94.80;;;;;;5106704;28;19904;-46
2021/06/01 00:20:55;;;;;;;;;;;27.30;94.60;;;;;;5106913;28;19916;-44
2021/06/01 00:23:22;;;;;;;;;;;27.20;94.70;;;;;;5106965;28;20004;-47
2021/06/01 00:25:48;;;;;;;;;;;27.20;94.40;;;;;;5105400;28;20037;-47
2021/06/01 00:28:14;;;;;;;;;;;27.20;94.70;;;;;;5106380;28;20185;-45
2021/06/01 00:30:41;;;;;;;;;;;27.20;94.60;;;;;;5106563;28;19912;-45
2021/06/01 00:33:10;;;;;;;;;;;27.20;94.80;;;;;;5098100;28;19972;-44
2021/06/01 00:35:37;;;;;;;;;;;27.20;94.80;;;;;;5086351;28;19920;-44
2021/06/01 00:38:03;;;;;;;;;;;27.10;94.70;;;;;;5093585;28;20147;-46
2021/06/01 00:40:30;;;;;;;;;;;27.10;94.80;;;;;;5106225;28;20085;-49
2021/06/01 00:42:56;;;;;;;;;;;27.20;94.90;;;;;;5105939;28;19904;-53
2021/06/01 00:45:26;;;;;;;;;;;27.10;94.70;;;;;;5105821;28;19920;-43
2021/06/01 00:47:52;;;;;;;;;;;27.10;94.70;;;;;;5105461;28;19999;-47
2021/06/01 00:50:23;;;;;;;;;;;27.10;94.80;;;;;;5105835;28;19943;-44
2021/06/01 00:52:49;;;;;;;;;;;27.10;94.90;;;;;;5105566;28;19916;-46
2021/06/01 00:55:16;;;;;;;;;;;27.10;95.00;;;;;;5105570;28;19963;-49
2021/06/01 00:57:42;;;;;;;;;;;27.10;95.10;;;;;;5105485;28;19904;-56
2021/06/01 01:02:58;;;;;;;;;;;27.10;95.10;;;;;;5080139;28;19908;-45
2021/06/01 01:05:30;;;;;;;;;;;27.10;95.10;;;;;;5104281;28;19920;-43
2021/06/01 01:08:33;;;;;;;;;;;27.10;95.20;;;;;;5104978;28;20166;-53
2021/06/01 01:11:02;;;;;;;;;;;27.10;95.20;;;;;;5104940;28;19919;-44
2021/06/01 01:13:33;;;;;;;;;;;27.10;95.30;;;;;;5104768;28;20303;-44
2021/06/01 01:16:00;;;;;;;;;;;27.10;95.40;;;;;;5105353;28;20159;-46
2021/06/01 01:18:27;;;;;;;;;;;27.00;95.40;;;;;;5104234;28;19979;-46
2021/06/01 01:21:11;;;;;;;;;;;27.00;95.50;;;;;;5104991;28;19924;-49
2021/06/01 01:23:40;;;;;;;;;;;27.10;95.50;;;;;;5104510;28;19912;-51
2021/06/01 01:26:21;;;;;;;;;;;27.10;95.30;;;;;;5104618;28;19921;-53
2021/06/01 01:28:50;;;;;;;;;;;27.00;95.10;;;;;;5103695;28;19915;-48
2021/06/01 01:31:30;;;;;;;;;;;27.00;95.20;;;;;;5104866;28;19912;-45
2021/06/01 01:33:59;;;;;;;;;;;27.00;94.70;;;;;;5120995;28;19912;-54
2021/06/01 01:36:26;;;;;;;;;;;27.00;94.70;;;;;;5105369;28;20203;-46
2021/06/01 01:38:53;;;;;;;;;;;26.90;94.60;;;;;;5105324;28;19970;-45
2021/06/01 01:41:20;;;;;;;;;;;26.90;94.50;;;;;;5105588;28;20142;-49
2021/06/01 01:43:50;;;;;;;;;;;26.90;94.40;;;;;;5104710;28;19998;-56
2021/06/01 01:46:52;;;;;;;;;;;26.90;94.20;;;;;;5104183;28;19912;-51
2021/06/01 01:49:21;;;;;;;;;;;26.90;94.10;;;;;;5104880;28;19967;-43
2021/06/01 01:51:58;;;;;;;;;;;26.90;94.00;;;;;;5104710;28;19928;-54
2021/06/01 01:54:25;;;;;;;;;;;26.90;94.10;;;;;;5120346;28;19943;-46
2021/06/01 01:56:54;;;;;;;;;;;26.90;94.00;;;;;;5105523;28;19912;-46
2021/06/01 01:59:22;;;;;;;;;;;26.90;94.10;;;;;;5103722;28;20073;-48
2021/06/01 02:01:49;;;;;;;;;;;26.90;94.10;;;;;;5104643;28;19928;-49
2021/06/01 02:04:17;;;;;;;;;;;26.90;94.20;;;;;;5120140;28;19916;-48
2021/06/01 02:06:56;;;;;;;;;;;26.90;94.10;;;;;;5104800;28;19918;-55
2021/06/01 02:09:22;;;;;;;;;;;26.90;94.10;;;;;;5104776;28;19907;-53
2021/06/01 02:11:49;;;;;;;;;;;26.90;94.10;;;;;;5105261;28;19918;-46
2021/06/01 02:14:16;;;;;;;;;;;26.90;94.10;;;;;;5104821;28;19914;-51
2021/06/01 02:16:45;;;;;;;;;;;26.90;94.00;;;;;;5104217;28;20192;-52
2021/06/01 02:19:13;;;;;;;;;;;26.80;93.90;;;;;;5104648;28;19904;-51
2021/06/01 02:24:28;;;;;;;;;;;26.80;94.00;;;;;;5104581;28;19911;-46
2021/06/01 02:27:06;;;;;;;;;;;26.80;94.00;;;;;;5104851;28;19918;-48
2021/06/01 02:29:32;;;;;;;;;;;26.80;94.10;;;;;;5104703;28;20192;-46
2021/06/01 02:32:00;;;;;;;;;;;26.80;94.10;;;;;;5104588;28;19912;-45
2021/06/01 02:34:27;;;;;;;;;;;26.70;94.30;;;;;;5104521;28;19926;-52
2021/06/01 02:36:54;;;;;;;;;;;26.70;94.50;;;;;;5104805;28;19912;-52
2021/06/01 02:39:21;;;;;;;;;;;26.70;94.30;;;;;;5104343;28;19971;-49
2021/06/01 02:41:48;;;;;;;;;;;26.70;94.20;;;;;;5104629;28;19953;-47
2021/06/01 02:44:14;;;;;;;;;;;26.70;94.50;;;;;;5104485;28;20207;-53
2021/06/01 02:46:41;;;;;;;;;;;26.70;94.40;;;;;;5104275;28;19918;-45
2021/06/01 02:49:07;;;;;;;;;;;26.70;94.40;;;;;;5104330;28;19904;-46
2021/06/01 02:51:33;;;;;;;;;;;26.70;94.50;;;;;;5104319;28;19993;-55
2021/06/01 02:54:00;;;;;;;;;;;26.60;94.40;;;;;;5104181;28;19904;-48
2021/06/01 02:56:26;;;;;;;;;;;26.60;94.40;;;;;;5104545;28;19983;-53
2021/06/01 02:58:53;;;;;;;;;;;26.60;94.30;;;;;;5103134;28;20196;-48
2021/06/01 03:01:20;;;;;;;;;;;26.60;94.40;;;;;;5104028;28;19943;-49
2021/06/01 03:03:51;;;;;;;;;;;26.60;94.50;;;;;;5104305;28;19945;-49
2021/06/01 03:06:18;;;;;;;;;;;26.60;94.70;;;;;;5103342;28;19940;-45
2021/06/01 03:08:44;;;;;;;;;;;26.60;94.60;;;;;;5103566;28;19945;-44
2021/06/01 03:11:11;;;;;;;;;;;26.60;94.70;;;;;;5104827;28;19913;-45
2021/06/01 03:13:38;;;;;;;;;;;26.60;94.70;;;;;;5103561;28;19908;-43
2021/06/01 03:16:04;;;;;;;;;;;26.60;94.70;;;;;;5103509;28;19916;-46
2021/06/01 03:18:30;;;;;;;;;;;26.60;94.80;;;;;;5103577;28;19904;-44
2021/06/01 03:20:57;;;;;;;;;;;26.60;94.80;;;;;;5103604;28;19947;-52
2021/06/01 03:23:24;;;;;;;;;;;26.70;94.80;;;;;;5102873;28;19908;-44
2021/06/01 03:25:50;;;;;;;;;;;26.70;94.70;;;;;;5103336;28;19912;-48
2021/06/01 03:28:17;;;;;;;;;;;26.70;94.80;;;;;;5106017;28;20100;-44
2021/06/01 03:30:43;;;;;;;;;;;26.70;94.70;;;;;;5107608;28;19912;-49
2021/06/01 03:33:09;;;;;;;;;;;26.70;94.70;;;;;;5106561;28;20196;-45
2021/06/01 03:35:36;;;;;;;;;;;26.70;94.80;;;;;;5106925;28;19987;-45
2021/06/01 03:38:02;;;;;;;;;;;26.70;94.90;;;;;;5106555;28;20082;-48
2021/06/01 03:40:28;;;;;;;;;;;26.70;94.80;;;;;;5106360;28;19943;-45
2021/06/01 03:42:55;;;;;;;;;;;26.70;94.80;;;;;;5107333;28;20204;-54
2021/06/01 03:45:22;;;;;;;;;;;26.70;94.80;;;;;;5107508;28;19979;-50
2021/06/01 03:47:49;;;;;;;;;;;26.70;94.70;;;;;;5106491;28;19915;-50
2021/06/01 03:50:15;;;;;;;;;;;26.70;94.70;;;;;;5107367;28;20192;-48
2021/06/01 03:52:41;;;;;;;;;;;26.70;94.70;;;;;;5106863;28;20166;-48
2021/06/01 03:55:08;;;;;;;;;;;26.70;94.70;;;;;;5107058;28;20135;-44
2021/06/01 03:57:34;;;;;;;;;;;26.70;94.70;;;;;;5107195;28;19904;-47
2021/06/01 04:00:01;;;;;;;;;;;26.70;94.70;;;;;;5105963;28;19904;-46
2021/06/01 04:02:27;;;;;;;;;;;26.70;94.80;;;;;;5106991;28;19943;-43
2021/06/01 04:04:53;;;;;;;;;;;26.70;94.80;;;;;;5107027;28;19912;-48
2021/06/01 04:07:19;;;;;;;;;;;26.70;94.60;;;;;;5107520;28;19916;-45
2021/06/01 04:09:45;;;;;;;;;;;26.70;94.50;;;;;;5106638;28;19904;-47
2021/06/01 04:12:12;;;;;;;;;;;26.70;94.50;;;;;;5105864;28;19943;-52
2021/06/01 04:14:38;;;;;;;;;;;26.70;94.50;;;;;;5105724;28;19904;-50
2021/06/01 04:17:05;;;;;;;;;;;26.70;94.50;;;;;;5106400;28;20010;-47
2021/06/01 04:19:32;;;;;;;;;;;26.70;94.80;;;;;;5106557;28;19918;-46
2021/06/01 04:21:59;;;;;;;;;;;26.70;94.60;;;;;;5106921;28;19920;-45
2021/06/01 04:24:28;;;;;;;;;;;26.60;94.50;;;;;;5106413;28;19915;-42
2021/06/01 04:26:56;;;;;;;;;;;26.70;94.40;;;;;;5106617;28;20134;-44
2021/06/01 04:29:22;;;;;;;;;;;26.70;94.40;;;;;;5106597;28;19957;-45
2021/06/01 04:31:49;;;;;;;;;;;26.70;94.40;;;;;;5106917;28;19939;-44
2021/06/01 04:34:15;;;;;;;;;;;26.70;94.40;;;;;;5106211;28;19904;-46
2021/06/01 04:36:42;;;;;;;;;;;26.70;94.30;;;;;;5106747;28;19920;-48
2021/06/01 04:39:08;;;;;;;;;;;26.60;94.20;;;;;;5106190;28;19911;-47
2021/06/01 04:41:35;;;;;;;;;;;26.60;94.30;;;;;;5106233;28;19924;-48
2021/06/01 04:44:01;;;;;;;;;;;26.60;94.30;;;;;;5106136;28;19984;-47
2021/06/01 04:46:27;;;;;;;;;;;26.60;94.30;;;;;;5105875;28;19975;-47
2021/06/01 04:48:53;;;;;;;;;;;26.60;94.40;;;;;;5105794;28;19928;-45
2021/06/01 04:51:20;;;;;;;;;;;26.60;94.40;;;;;;5106074;28;20123;-46
2021/06/01 04:53:46;;;;;;;;;;;26.70;94.50;;;;;;5105901;28;19927;-49
2021/06/01 04:56:12;;;;;;;;;;;26.70;94.70;;;;;;5105959;28;19951;-46
2021/06/01 04:58:38;;;;;;;;;;;26.60;94.60;;;;;;5105971;28;19908;-52
2021/06/01 05:01:04;;;;;;;;;;;26.60;94.70;;;;;;5106039;28;19912;-49
2021/06/01 05:03:31;;;;;;;;;;;26.60;94.80;;;;;;5105717;28;19939;-52
2021/06/01 05:05:57;;;;;;;;;;;26.60;94.90;;;;;;5105930;28;19938;-49
2021/06/01 05:08:23;;;;;;;;;;;26.60;95.00;;;;;;5104613;28;19942;-49
2021/06/01 05:10:49;;;;;;;;;;;26.60;95.00;;;;;;5105620;28;19909;-49
2021/06/01 05:13:15;;;;;;;;;;;26.60;95.00;;;;;;5105585;28;19943;-48
2021/06/01 05:15:43;;;;;;;;;;;26.60;95.00;;;;;;5105706;28;19908;-46
2021/06/01 05:18:10;;;;;;;;;;;26.60;95.00;;;;;;5105802;28;20220;-50
2021/06/01 05:20:36;;;;;;;;;;;26.60;95.00;;;;;;5121286;28;19949;-45
2021/06/01 05:23:02;;;;;;;;;;;26.60;95.00;;;;;;5105694;28;19942;-44
2021/06/01 05:25:29;;;;;;;;;;;26.60;95.00;;;;;;5105415;28;19940;-46
2021/06/01 05:27:55;;;;;;;;;;;26.60;95.00;;;;;;5105253;28;19908;-45
2021/06/01 05:30:45;;;;;;;;;;;26.60;95.00;;;;;;5105173;28;19916;-50
2021/06/01 05:33:13;;;;;;;;;;;26.60;95.10;;;;;;5105041;28;19939;-44
2021/06/01 05:36:12;;;;;;;;;;;26.60;95.00;;;;;;5105244;28;20133;-49
2021/06/01 05:38:32;;;;;;;;;;;26.60;95.00;;;;;;5101975;28;19927;-44
2021/06/01 05:40:59;;;;;;;;;;;26.60;94.90;;;;;;5105120;28;19978;-47
2021/06/01 05:43:26;;;;;;;;;;;26.60;94.90;;;;;;5104896;28;19912;-50
2021/06/01 05:45:52;;;;;;;;;;;26.60;94.90;;;;;;5105234;28;19912;-47
2021/06/01 05:48:18;;;;;;;;;;;26.60;94.80;;;;;;5104934;28;19914;-47
2021/06/01 05:50:45;;;;;;;;;;;26.60;94.80;;;;;;5104636;28;19951;-48
2021/06/01 05:53:11;;;;;;;;;;;26.60;94.90;;;;;;5104814;28;19987;-45
2021/06/01 05:55:37;;;;;;;;;;;26.60;94.90;;;;;;5104808;28;20142;-44
2021/06/01 05:58:04;;;;;;;;;;;26.60;94.90;;;;;;5104705;28;19975;-48
2021/06/01 06:00:30;;;;;;;;;;;26.60;94.80;;;;;;5104679;28;19912;-50
2021/06/01 06:02:57;;;;;;;;;;;26.60;95.00;;;;;;5104781;28;19998;-52
2021/06/01 06:05:24;;;;;;;;;;;26.50;95.00;;;;;;5104741;28;19991;-46
2021/06/01 06:07:50;;;;;;;;;;;26.50;94.90;;;;;;5104398;28;19945;-43
2021/06/01 06:10:16;;;;;;;;;;;26.60;95.00;;;;;;5104649;28;19904;-44
2021/06/01 06:12:42;;;;;;;;;;;26.60;95.00;;;;;;5104625;28;19911;-49
2021/06/01 06:15:11;;;;;;;;;;;26.50;94.90;;;;;;5104711;28;20207;-50
2021/06/01 06:17:41;;;;;;;;;;;26.50;94.90;;;;;;5104652;28;19916;-43
2021/06/01 06:20:08;;;;;;;;;;;26.50;94.90;;;;;;5104493;28;20183;-47
2021/06/01 06:22:36;;;;;;;;;;;26.60;94.90;;;;;;5104336;28;19908;-43
2021/06/01 06:25:03;;;;;;;;;;;26.50;94.90;;;;;;5104400;28;19904;-41
2021/06/01 06:27:29;;;;;;;;;;;26.50;95.00;;;;;;5104463;28;19904;-48
2021/06/01 06:29:55;;;;;;;;;;;26.50;94.90;;;;;;5104334;28;19908;-50
2021/06/01 06:32:21;;;;;;;;;;;26.50;95.00;;;;;;5104846;28;20175;-49
2021/06/01 06:34:47;;;;;;;;;;;26.50;95.00;;;;;;5104394;28;20130;-45
2021/06/01 06:37:13;;;;;;;;;;;26.50;95.00;;;;;;5104596;28;20004;-50
2021/06/01 06:39:41;;;;;;;;;;;26.50;95.10;;;;;;5104384;28;19908;-45
2021/06/01 06:42:07;;;;;;;;;;;26.50;95.10;;;;;;5104592;28;20188;-48
2021/06/01 06:44:35;;;;;;;;;;;26.50;95.00;;;;;;5104169;28;20108;-50
2021/06/01 06:47:25;;;;;;;;;;;26.50;95.10;;;;;;5104666;28;19912;-44
2021/06/01 06:49:51;;;;;;;;;;;26.50;95.10;;;;;;5104076;28;19911;-44
2021/06/01 06:52:17;;;;;;;;;;;26.50;95.10;;;;;;5104131;28;19920;-43
2021/06/01 06:54:43;;;;;;;;;;;26.50;95.10;;;;;;5104265;28;19911;-49
2021/06/01 06:57:11;;;;;;;;;;;26.50;95.10;;;;;;5104383;28;19912;-47
2021/06/01 06:59:37;;;;;;;;;;;26.40;95.20;;;;;;5104112;28;19908;-51
2021/06/01 07:02:04;;;;;;;;;;;26.40;95.20;;;;;;5104698;28;19939;-45
2021/06/01 07:04:30;;;;;;;;;;;26.40;95.20;;;;;;5108401;28;19904;-51
2021/06/01 07:06:56;;;;;;;;;;;26.40;95.20;;;;;;5108555;28;19991;-48
2021/06/01 07:09:23;;;;;;;;;;;26.40;95.20;;;;;;5108091;28;19949;-50
2021/06/01 07:11:49;;;;;;;;;;;26.40;95.20;;;;;;5108474;28;19969;-50
2021/06/01 07:14:18;;;;;;;;;;;26.40;95.20;;;;;;5107919;28;19975;-43
2021/06/01 07:16:45;;;;;;;;;;;26.40;95.30;;;;;;5107994;28;20188;-49
2021/06/01 07:19:12;;;;;;;;;;;26.40;95.30;;;;;;5107934;28;20168;-44
2021/06/01 07:21:38;;;;;;;;;;;26.40;95.30;;;;;;5108113;28;19978;-49
2021/06/01 07:24:05;;;;;;;;;;;26.40;95.30;;;;;;5107906;28;19905;-47
2021/06/01 07:26:32;;;;;;;;;;;26.30;95.30;;;;;;5108101;28;20000;-46
2021/06/01 07:29:01;;;;;;;;;;;26.40;95.30;;;;;;5107742;28;19905;-50
2021/06/01 07:31:27;;;;;;;;;;;26.40;95.30;;;;;;5108037;28;20144;-53
2021/06/01 07:33:53;;;;;;;;;;;26.40;95.30;;;;;;5107707;28;19975;-49
2021/06/01 07:36:19;;;;;;;;;;;26.40;95.30;;;;;;5107701;28;19923;-48
2021/06/01 07:38:46;;;;;;;;;;;26.40;95.20;;;;;;5107603;28;19904;-49
2021/06/01 07:41:12;;;;;;;;;;;26.40;95.30;;;;;;5107615;28;19924;-48
2021/06/01 07:43:39;;;;;;;;;;;26.40;95.30;;;;;;5107355;28;19907;-49
2021/06/01 07:46:05;;;;;;;;;;;26.30;95.40;;;;;;5107548;28;19970;-47
2021/06/01 07:48:34;;;;;;;;;;;26.30;95.40;;;;;;5107437;28;20100;-51
2021/06/01 07:51:00;;;;;;;;;;;26.30;95.60;;;;;;5107174;28;19919;-47
2021/06/01 07:53:26;;;;;;;;;;;26.30;95.40;;;;;;5107317;28;19904;-53
2021/06/01 07:55:53;;;;;;;;;;;26.30;95.40;;;;;;5107395;28;19908;-50
2021/06/01 07:58:20;;;;;;;;;;;26.30;95.50;;;;;;5107076;28;19915;-44
2021/06/01 08:00:46;;;;;;;;;;;26.30;95.60;;;;;;5107009;28;19918;-48
2021/06/01 08:03:16;;;;;;;;;;;26.30;95.60;;;;;;5107443;28;19908;-49
2021/06/01 08:05:43;;;;;;;;;;;26.30;95.60;;;;;;5107326;28;19908;-47
2021/06/01 08:08:09;;;;;;;;;;;26.30;95.60;;;;;;5106990;28;19907;-47
2021/06/01 08:10:36;;;;;;;;;;;26.30;95.60;;;;;;5107255;28;20109;-49
2021/06/01 08:13:02;;;;;;;;;;;26.30;95.70;;;;;;5106366;28;19915;-45
2021/06/01 08:15:28;;;;;;;;;;;26.30;95.60;;;;;;5106787;28;19915;-50
2021/06/01 08:18:01;;;;;;;;;;;26.30;95.60;;;;;;5106823;28;19993;-43
2021/06/01 08:20:40;;;;;;;;;;;26.30;95.60;;;;;;5106630;28;20236;-47
2021/06/01 08:23:06;;;;;;;;;;;26.30;95.60;;;;;;5106789;28;19942;-46
2021/06/01 08:25:32;;;;;;;;;;;26.30;95.70;;;;;;5106685;28;19908;-47
2021/06/01 08:27:59;;;;;;;;;;;26.30;95.70;;;;;;5106669;28;20049;-48
2021/06/01 08:30:29;;;;;;;;;;;26.30;95.70;;;;;;5106601;28;19967;-45
2021/06/01 08:32:55;;;;;;;;;;;26.20;95.60;;;;;;5106425;28;20111;-46
2021/06/01 08:35:22;;;;;;;;;;;26.20;95.60;;;;;;5106444;28;19923;-47
2021/06/01 08:37:48;;;;;;;;;;;26.20;95.70;;;;;;5106454;28;19932;-47
2021/06/01 08:40:14;;;;;;;;;;;26.30;95.70;;;;;;5106335;28;19904;-49
2021/06/01 08:42:41;;;;;;;;;;;26.30;95.70;;;;;;5106154;28;19927;-44
2021/06/01 08:45:08;;;;;;;;;;;26.20;95.60;;;;;;5106222;28;19942;-47
2021/06/01 08:47:35;;;;;;;;;;;26.30;95.60;;;;;;5106013;28;19908;-43
2021/06/01 08:50:03;;;;;;;;;;;26.20;95.50;;;;;;5105959;28;19904;-46
2021/06/01 08:52:29;;;;;;;;;;;26.20;95.50;;;;;;5106004;28;19982;-44
2021/06/01 08:54:58;;;;;;;;;;;26.20;95.50;;;;;;5106044;28;20140;-45
2021/06/01 08:57:25;;;;;;;;;;;26.20;95.50;;;;;;5105853;28;19920;-49
2021/06/01 08:59:51;;;;;;;;;;;26.20;95.50;;;;;;5106057;28;20188;-48
2021/06/01 09:02:23;;;;;;;;;;;26.20;95.50;;;;;;5106305;28;20088;-46
2021/06/01 09:04:59;;;;;;;;;;;26.20;95.60;;;;;;5105898;28;20284;-44
2021/06/01 09:21:32;;;;;;;;;;;26.20;95.70;;;;;;5105354;28;19923;-50
2021/06/01 09:24:01;;;;;;;;;;;26.10;95.60;;;;;;5105757;28;19926;-47
2021/06/01 09:26:42;;;;;;;;;;;26.10;95.60;;;;;;5104772;28;19912;-48
2021/06/01 09:29:09;;;;;;;;;;;26.10;95.60;;;;;;5105285;28;19919;-50
2021/06/01 09:31:35;;;;;;;;;;;26.10;95.60;;;;;;5106069;28;19912;-51
2021/06/01 09:34:02;;;;;;;;;;;26.10;95.60;;;;;;5105538;28;19904;-55
2021/06/01 09:36:28;;;;;;;;;;;26.10;95.60;;;;;;5105408;28;20096;-51
2021/06/01 09:38:55;;;;;;;;;;;26.10;95.70;;;;;;5105508;28;19904;-51
2021/06/01 09:41:28;;;;;;;;;;;26.10;95.70;;;;;;5105594;28;20177;-47
2021/06/01 09:43:55;;;;;;;;;;;26.10;95.70;;;;;;5105385;28;19904;-50
2021/06/01 09:46:25;;;;;;;;;;;26.10;95.60;;;;;;5105376;28;19909;-50
2021/06/01 09:48:52;;;;;;;;;;;26.10;95.40;;;;;;5105473;28;20093;-44
2021/06/01 09:51:29;;;;;;;;;;;26.10;95.40;;;;;;5105393;28;19916;-48
2021/06/01 09:53:58;;;;;;;;;;;26.10;95.40;;;;;;5105340;28;19904;-55
2021/06/01 09:56:24;;;;;;;;;;;26.10;95.30;;;;;;5105257;28;19924;-53
2021/06/01 09:58:51;;;;;;;;;;;26.00;95.20;;;;;;5105329;28;20188;-55
2021/06/01 10:01:17;;;;;;;;;;;26.10;95.30;;;;;;5105265;28;19916;-53
2021/06/01 10:03:50;;;;;;;;;;;26.10;95.40;;;;;;5105228;28;19963;-46
2021/06/01 10:06:17;;;;;;;;;;;26.10;95.40;;;;;;5105387;28;19916;-53
2021/06/01 10:08:48;;;;;;;;;;;26.10;95.40;;;;;;5104998;28;19904;-51
2021/06/01 10:11:14;;;;;;;;;;;26.00;95.40;;;;;;5105334;28;20100;-47
2021/06/01 10:13:41;;;;;;;;;;;26.10;95.50;;;;;;5105093;28;20146;-51
2021/06/01 10:16:15;;;;;;;;;;;26.00;95.40;;;;;;5104998;28;19936;-49
2021/06/01 10:18:41;;;;;;;;;;;26.10;95.40;;;;;;5104856;28;19967;-54
2021/06/01 10:21:09;;;;;;;;;;;26.10;95.40;;;;;;5105103;28;19916;-50
2021/06/01 10:23:41;;;;;;;;;;;26.10;95.30;;;;;;5104780;28;19911;-49
2021/06/01 10:26:08;;;;;;;;;;;26.10;95.40;;;;;;5104939;28;20192;-46
2021/06/01 10:28:38;;;;;;;;;;;26.10;95.40;;;;;;5104985;28;20200;-47
2021/06/01 10:31:05;;;;;;;;;;;26.00;95.40;;;;;;5104668;28;19916;-54
2021/06/01 10:33:36;;;;;;;;;;;26.00;95.40;;;;;;5104698;28;19904;-53
2021/06/01 10:50:09;;;;;;;;;;;26.00;95.30;;;;;;5104553;28;20207;-47
2021/06/01 10:52:36;;;;;;;;;;;26.00;95.20;;;;;;5104437;28;19920;-44
2021/06/01 10:55:06;;;;;;;;;;;26.00;95.30;;;;;;5104247;28;19904;-45
2021/06/01 10:57:51;;;;;;;;;;;26.00;95.30;;;;;;5104787;28;19939;-46
2021/06/01 11:03:06;;;;;;;;;;;26.00;95.40;;;;;;5104499;28;19935;-48
2021/06/01 11:05:52;;;;;;;;;;;26.00;95.50;;;;;;5104225;28;19949;-53
2021/06/01 11:08:32;;;;;;;;;;;26.00;95.60;;;;;;5103316;28;19909;-47
2021/06/01 11:10:58;;;;;;;;;;;26.00;95.50;;;;;;5104265;28;20030;-48
2021/06/01 11:13:24;;;;;;;;;;;26.00;95.50;;;;;;5104272;28;19915;-46
2021/06/01 11:15:58;;;;;;;;;;;26.00;95.50;;;;;;5104422;28;19950;-45
2021/06/01 11:18:40;;;;;;;;;;;26.00;95.40;;;;;;5104037;28;20200;-53
2021/06/01 11:21:14;;;;;;;;;;;26.10;95.40;;;;;;5104425;28;19949;-53
2021/06/01 11:24:03;;;;;;;;;;;26.10;95.40;;;;;;5104232;28;19912;-45
2021/06/01 11:32:54;;;;;;;;;;;26.20;95.40;;;;;;5104179;28;19912;-47
2021/06/01 11:35:21;;;;;;;;;;;26.20;95.40;;;;;;5104130;28;20279;-53
2021/06/01 11:43:14;;;;;;;;;;;26.30;95.30;;;;;;5103872;28;19908;-49
2021/06/01 11:51:12;;;;;;;;;;;26.40;95.00;;;;;;5107495;28;19915;-48
2021/06/01 11:53:49;;;;;;;;;;;26.40;95.00;;;;;;5107508;28;19904;-46
2021/06/01 11:56:20;;;;;;;;;;;26.40;95.00;;;;;;5107728;28;20211;-43
2021/06/01 12:12:48;;;;;;;;;;;26.40;94.90;;;;;;5107392;28;19989;-45
2021/06/01 12:18:17;;;;;;;;;;;26.40;94.90;;;;;;5107272;28;20097;-46
2021/06/01 12:20:43;;;;;;;;;;;26.50;94.90;;;;;;5107332;28;19979;-46
2021/06/01 12:23:25;;;;;;;;;;;26.50;94.80;;;;;;5106921;28;20204;-45
2021/06/01 12:25:59;;;;;;;;;;;26.50;94.80;;;;;;5106529;28;19920;-55
2021/06/01 12:31:14;;;;;;;;;;;26.50;94.80;;;;;;5106819;28;19918;-53
2021/06/01 12:33:40;;;;;;;;;;;26.50;94.70;;;;;;5106584;28;19910;-47
2021/06/01 12:44:07;;;;;;;;;;;26.50;95.10;;;;;;5106635;28;19900;-49
2021/06/01 12:46:42;;;;;;;;;;;26.50;95.10;;;;;;5122459;28;20211;-46
2021/06/01 13:19:41;;;;;;;;;;;26.60;95.30;;;;;;5106055;28;19918;-52
2021/06/01 13:39:33;;;;;;;;;;;26.70;95.10;;;;;;5105810;28;19946;-47
2021/06/01 13:46:44;;;;;;;;;;;26.70;94.90;;;;;;5105398;28;19969;-49
2021/06/01 13:49:17;;;;;;;;;;;26.70;95.00;;;;;;5105512;28;19987;-51
2021/06/01 13:57:04;;;;;;;;;;;26.80;94.80;;;;;;5105636;28;19919;-44
2021/06/01 14:37:43;;;;;;;11.25;1.67;;;27.20;94.70;;;;;;5103061;28;20051;-45
2021/06/01 14:55:13;;;;;;;6.47;1.80;;;27.30;94.30;;;;;;5130655;28;20208;-48
2021/06/01 15:07:58;;;;;;;21.83;3.28;;;27.50;93.70;;;;;;5120789;28;20126;-52
2021/06/01 15:10:38;;;;;;;11.98;2.42;;;27.50;93.50;;;;;;5123329;28;20333;-48
2021/06/01 15:29:49;;;;;;;15.25;3.65;;;27.00;92.90;;;;;;5128283;28;20019;-49
2021/06/01 15:32:34;;;;;;;15.75;2.72;;;26.90;93.10;;;;;;5126353;28;20027;-48
2021/06/01 15:47:41;;;;;;;8.57;1.20;;;26.70;93.50;;;;;;5125419;28;20018;-48
2021/06/01 15:49:14;;;;;;;5.45;1.48;;;26.30;93.60;;;;;;5126262;28;20077;-48
2021/06/01 16:14:17;;;;;;;6.25;1.20;;;25.90;94.30;;;;;;5126870;28;20027;-52
2021/06/01 16:30:25;;;;;;;1.65;0.63;;;25.80;94.30;;;;;;5106417;28;20084;-51
2021/06/01 16:44:08;;;;;;;;;;;25.70;94.70;;;;;;5107003;28;19910;-46
2021/06/01 17:03:17;;;;;;;;;;;25.70;93.80;;;;;;5106525;28;19945;-53
2021/06/01 17:05:54;;;;;;;;;;;25.70;94.00;;;;;;5117516;28;19914;-51
2021/06/01 17:13:35;;;;;;;;;;;25.80;93.90;;;;;;5126094;28;20214;-44
2021/06/01 17:16:01;;;;;;;;;;;25.80;94.30;;;;;;5126370;28;19904;-49
2021/06/01 17:18:52;;;;;;;;;;;25.80;94.30;;;;;;5126003;27;19918;-49
2021/06/01 17:32:21;;;;;;;;;;;25.80;94.50;;;;;;5122496;28;19906;-51
2021/06/01 17:34:54;;;;;;;;;;;25.80;94.80;;;;;;5124635;27;19924;-45
2021/06/01 17:37:21;;;;;;;;;;;25.80;94.70;;;;;;5106461;28;19916;-47
2021/06/01 17:39:48;;;;;;;;;;;25.80;94.70;;;;;;5124121;28;19963;-44
2021/06/01 17:42:16;;;;;;;;;;;25.80;94.60;;;;;;5123809;28;19935;-49
2021/06/01 17:44:43;;;;;;;;;;;25.80;94.50;;;;;;5123871;28;19908;-44
2021/06/01 17:47:13;;;;;;;;;;;25.70;94.90;;;;;;5118852;28;19942;-45
2021/06/01 17:49:40;;;;;;;;;;;25.80;95.40;;;;;;5123675;28;19908;-44
2021/06/01 17:52:06;;;;;;;;;;;25.80;95.10;;;;;;5117422;28;19931;-44
2021/06/01 17:54:33;;;;;;;;;;;25.70;95.10;;;;;;5111518;28;19967;-43
2021/06/01 17:57:00;;;;;;;;;;;25.60;94.90;;;;;;5111138;28;19900;-52
2021/06/01 17:59:27;;;;;;;;;;;25.60;95.20;;;;;;5097266;28;20116;-55
2021/06/01 18:01:54;;;;;;;;;;;25.60;95.10;;;;;;5113452;28;19904;-46
2021/06/01 18:04:23;;;;;;;;;;;25.50;95.10;;;;;;5114363;28;19911;-43
2021/06/01 18:06:55;;;;;;;;;;;25.50;95.20;;;;;;5113695;28;19903;-47
2021/06/01 19:21:25;;;;;;;;;;;26.00;96.50;;;;;;5128488;28;19907;-40
2021/06/01 19:28:39;;;;;;;;;;;26.10;95.60;;;;;;5128845;28;19944;-43
2021/06/01 19:50:22;;;;;;;;;;;26.20;95.30;;;;;;5128090;28;19907;-47
2021/06/01 19:52:49;;;;;;;;;;;26.20;95.50;;;;;;5145058;27;20104;-44
2021/06/01 19:55:17;;;;;;;;;;;26.20;94.90;;;;;;5148509;27;20129;-47
2021/06/01 19:57:43;;;;;;;;;;;26.30;95.00;;;;;;5148413;27;19911;-44
2021/06/01 20:00:11;;;;;;;;;;;26.30;95.30;;;;;;5148442;27;20183;-50
2021/06/01 20:02:37;;;;;;;;;;;26.30;95.30;;;;;;5148302;27;19911;-47
2021/06/01 20:05:06;;;;;;;;;;;26.30;95.30;;;;;;5148589;27;19906;-40
2021/06/01 20:07:32;;;;;;;;;;;26.40;94.90;;;;;;5148152;27;20140;-45
2021/06/01 20:09:59;;;;;;;;;;;26.40;95.00;;;;;;5123613;27;20418;-49
2021/06/01 20:12:27;;;;;;;;;;;26.40;94.90;;;;;;5127298;28;19907;-47
2021/06/01 20:14:54;;;;;;;;;;;26.40;94.70;;;;;;5127314;27;20212;-43
2021/06/01 20:17:33;;;;;;;;;;;26.40;95.00;;;;;;5127251;27;19908;-46
2021/06/01 20:20:05;;;;;;;;;;;26.50;95.10;;;;;;5128266;27;19942;-47
2021/06/01 20:22:32;;;;;;;;;;;26.50;95.10;;;;;;5140967;27;20242;-43
2021/06/01 20:25:00;;;;;;;;;;;26.50;94.80;;;;;;5136689;27;19908;-41
2021/06/01 20:27:27;;;;;;;;;;;26.50;94.40;;;;;;5128980;27;19922;-44
2021/06/01 20:29:56;;;;;;;;;;;26.60;94.70;;;;;;5127526;27;19904;-42
2021/06/01 20:35:17;;;;;;;;;;;26.60;94.90;;;;;;5132307;27;19910;-42
2021/06/01 20:37:43;;;;;;;;;;;26.60;94.70;;;;;;5146888;27;19976;-42
2021/06/01 20:40:14;;;;;;;;;;;26.60;94.80;;;;;;5146374;27;19915;-41
2021/06/01 20:42:42;;;;;;;;;;;26.60;94.80;;;;;;5147749;27;19923;-42
2021/06/01 20:45:08;;;;;;;;;;;26.60;94.80;;;;;;5129425;27;19907;-44
2021/06/01 20:47:35;;;;;;;;;;;26.60;94.90;;;;;;5147486;27;19904;-44
2021/06/01 20:50:02;;;;;;;;;;;26.60;94.90;;;;;;5147327;27;19953;-42
2021/06/01 20:52:28;;;;;;;;;;;26.60;94.80;;;;;;5147490;27;19916;-50
2021/06/01 20:54:54;;;;;;;;;;;26.60;95.00;;;;;;5146090;27;20093;-46
2021/06/01 20:57:24;;;;;;;;;;;26.70;95.00;;;;;;5147499;27;19950;-49
2021/06/01 20:59:50;;;;;;;;;;;26.70;95.00;;;;;;5147132;27;19970;-51
2021/06/01 21:02:19;;;;;;;;;;;26.70;94.90;;;;;;5147302;27;20132;-49
2021/06/01 21:04:47;;;;;;;;;;;26.60;94.80;;;;;;5147081;27;19930;-43
2021/06/01 21:07:15;;;;;;;;;;;26.70;94.70;;;;;;5128497;27;19962;-39
2021/06/01 21:09:42;;;;;;;;;;;26.70;94.80;;;;;;5146781;27;19923;-47
2021/06/01 21:12:10;;;;;;;;;;;26.70;94.70;;;;;;5135333;27;19912;-44